sensor_id;sensor_type;location;lat;lon;timestamp;P1;durP1;ratioP1;P2;durP2;ratioP2
80963;SDS011;70425;59.322;13.486;2023-07-13T00:00:25;14.50;;;3.83;;
80963;SDS011;70425;59.322;13.486;2023-07-13T00:03:14;12.37;;;3.30;;
80963;SDS011;70425;59.322;13.486;2023-07-13T00:06:02;12.50;;;3.60;;
80963;SDS011;70425;59.322;13.486;2023-07-13T00:08:51;10.47;;;3.30;;
80963;SDS011;70425;59.322;13.486;2023-07-13T00:11:40;15.30;;;3.50;;
80963;SDS011;70425;59.322;13.486;2023-07-13T00:14:29;11.50;;;3.10;;
80963;SDS011;70425;59.322;13.486;2023-07-13T00:17:20;14.00;;;3.50;;
80963;SDS011;70425;59.322;13.486;2023-07-13T00:22:49;12.20;;;3.37;;
80963;SDS011;70425;59.322;13.486;2023-07-13T00:25:47;13.70;;;3.90;;
80963;SDS011;70425;59.322;13.486;2023-07-13T00:28:37;12.30;;;3.50;;
80963;SDS011;70425;59.322;13.486;2023-07-13T00:31:27;10.57;;;3.50;;
80963;SDS011;70425;59.322;13.486;2023-07-13T00:34:17;16.30;;;3.47;;
80963;SDS011;70425;59.322;13.486;2023-07-13T00:37:06;14.40;;;3.33;;
80963;SDS011;70425;59.322;13.486;2023-07-13T00:39:47;19.20;;;3.90;;
80963;SDS011;70425;59.322;13.486;2023-07-13T00:42:36;11.60;;;3.60;;
80963;SDS011;70425;59.322;13.486;2023-07-13T00:51:59;13.33;;;3.10;;
80963;SDS011;70425;59.322;13.486;2023-07-13T00:54:51;13.40;;;3.37;;
80963;SDS011;70425;59.322;13.486;2023-07-13T00:57:41;11.63;;;2.97;;
80963;SDS011;70425;59.322;13.486;2023-07-13T01:00:30;7.77;;;2.93;;
80963;SDS011;70425;59.322;13.486;2023-07-13T01:03:20;10.33;;;3.30;;
80963;SDS011;70425;59.322;13.486;2023-07-13T01:06:10;16.37;;;3.40;;
80963;SDS011;70425;59.322;13.486;2023-07-13T01:08:58;16.27;;;3.40;;
80963;SDS011;70425;59.322;13.486;2023-07-13T01:11:48;14.93;;;3.50;;
80963;SDS011;70425;59.322;13.486;2023-07-13T01:14:29;18.00;;;4.07;;
80963;SDS011;70425;59.322;13.486;2023-07-13T01:17:18;12.33;;;3.30;;
80963;SDS011;70425;59.322;13.486;2023-07-13T01:20:08;18.30;;;3.70;;
80963;SDS011;70425;59.322;13.486;2023-07-13T01:22:57;15.90;;;3.40;;
80963;SDS011;70425;59.322;13.486;2023-07-13T01:25:46;10.57;;;3.70;;
80963;SDS011;70425;59.322;13.486;2023-07-13T01:28:35;11.67;;;3.13;;
80963;SDS011;70425;59.322;13.486;2023-07-13T01:34:40;12.80;;;3.20;;
80963;SDS011;70425;59.322;13.486;2023-07-13T01:40:10;12.70;;;3.20;;
80963;SDS011;70425;59.322;13.486;2023-07-13T01:42:57;13.63;;;3.10;;
80963;SDS011;70425;59.322;13.486;2023-07-13T01:45:47;13.37;;;3.23;;
80963;SDS011;70425;59.322;13.486;2023-07-13T01:51:17;11.70;;;3.03;;
80963;SDS011;70425;59.322;13.486;2023-07-13T01:54:07;17.23;;;3.07;;
80963;SDS011;70425;59.322;13.486;2023-07-13T01:56:55;19.27;;;3.47;;
80963;SDS011;70425;59.322;13.486;2023-07-13T01:59:44;14.23;;;3.07;;
80963;SDS011;70425;59.322;13.486;2023-07-13T02:02:33;16.07;;;3.50;;
80963;SDS011;70425;59.322;13.486;2023-07-13T02:05:22;13.37;;;3.10;;
80963;SDS011;70425;59.322;13.486;2023-07-13T02:10:52;10.40;;;3.17;;
80963;SDS011;70425;59.322;13.486;2023-07-13T02:16:21;12.43;;;3.00;;
80963;SDS011;70425;59.322;13.486;2023-07-13T02:19:10;14.53;;;2.90;;
80963;SDS011;70425;59.322;13.486;2023-07-13T02:21:59;14.10;;;3.33;;
80963;SDS011;70425;59.322;13.486;2023-07-13T02:24:48;10.50;;;3.00;;
80963;SDS011;70425;59.322;13.486;2023-07-13T02:27:36;12.43;;;3.47;;
80963;SDS011;70425;59.322;13.486;2023-07-13T02:30:26;12.43;;;3.47;;
80963;SDS011;70425;59.322;13.486;2023-07-13T02:33:15;18.27;;;3.10;;
80963;SDS011;70425;59.322;13.486;2023-07-13T02:36:04;12.00;;;3.17;;
80963;SDS011;70425;59.322;13.486;2023-07-13T02:38:53;9.37;;;2.77;;
80963;SDS011;70425;59.322;13.486;2023-07-13T02:41:41;10.17;;;2.50;;
80963;SDS011;70425;59.322;13.486;2023-07-13T02:44:30;16.97;;;3.33;;
80963;SDS011;70425;59.322;13.486;2023-07-13T02:47:19;18.97;;;3.10;;
80963;SDS011;70425;59.322;13.486;2023-07-13T02:50:08;11.83;;;3.10;;
80963;SDS011;70425;59.322;13.486;2023-07-13T02:52:57;15.37;;;3.13;;
80963;SDS011;70425;59.322;13.486;2023-07-13T02:58:26;19.13;;;3.10;;
80963;SDS011;70425;59.322;13.486;2023-07-13T03:01:14;9.77;;;2.73;;
80963;SDS011;70425;59.322;13.486;2023-07-13T03:04:04;14.00;;;2.53;;
80963;SDS011;70425;59.322;13.486;2023-07-13T03:06:53;17.87;;;2.70;;
80963;SDS011;70425;59.322;13.486;2023-07-13T03:09:44;9.80;;;2.90;;
80963;SDS011;70425;59.322;13.486;2023-07-13T03:12:32;10.97;;;2.60;;
80963;SDS011;70425;59.322;13.486;2023-07-13T03:15:21;7.87;;;2.20;;
80963;SDS011;70425;59.322;13.486;2023-07-13T03:18:05;9.20;;;2.40;;
80963;SDS011;70425;59.322;13.486;2023-07-13T03:20:53;9.50;;;2.33;;
80963;SDS011;70425;59.322;13.486;2023-07-13T03:23:43;9.93;;;2.40;;
80963;SDS011;70425;59.322;13.486;2023-07-13T03:26:32;9.73;;;2.33;;
80963;SDS011;70425;59.322;13.486;2023-07-13T03:29:21;10.43;;;2.40;;
80963;SDS011;70425;59.322;13.486;2023-07-13T03:32:09;11.23;;;2.60;;
80963;SDS011;70425;59.322;13.486;2023-07-13T03:34:58;10.83;;;2.73;;
80963;SDS011;70425;59.322;13.486;2023-07-13T03:37:47;13.37;;;2.87;;
80963;SDS011;70425;59.322;13.486;2023-07-13T03:40:37;13.53;;;2.67;;
80963;SDS011;70425;59.322;13.486;2023-07-13T03:43:26;14.60;;;2.70;;
80963;SDS011;70425;59.322;13.486;2023-07-13T03:46:08;10.87;;;2.87;;
80963;SDS011;70425;59.322;13.486;2023-07-13T03:48:57;13.50;;;2.67;;
80963;SDS011;70425;59.322;13.486;2023-07-13T03:51:46;12.93;;;3.27;;
80963;SDS011;70425;59.322;13.486;2023-07-13T03:54:34;16.17;;;3.07;;
80963;SDS011;70425;59.322;13.486;2023-07-13T03:57:24;16.20;;;3.10;;
80963;SDS011;70425;59.322;13.486;2023-07-13T04:00:14;18.97;;;3.00;;
80963;SDS011;70425;59.322;13.486;2023-07-13T04:03:03;15.63;;;2.83;;
80963;SDS011;70425;59.322;13.486;2023-07-13T04:05:51;11.97;;;2.90;;
80963;SDS011;70425;59.322;13.486;2023-07-13T04:08:40;10.70;;;2.60;;
80963;SDS011;70425;59.322;13.486;2023-07-13T04:11:30;13.37;;;3.07;;
80963;SDS011;70425;59.322;13.486;2023-07-13T04:14:19;10.33;;;2.70;;
80963;SDS011;70425;59.322;13.486;2023-07-13T04:17:07;12.87;;;2.83;;
80963;SDS011;70425;59.322;13.486;2023-07-13T04:19:56;14.47;;;2.80;;
80963;SDS011;70425;59.322;13.486;2023-07-13T04:22:45;9.77;;;2.67;;
80963;SDS011;70425;59.322;13.486;2023-07-13T04:25:34;9.27;;;2.77;;
80963;SDS011;70425;59.322;13.486;2023-07-13T04:28:23;10.67;;;2.40;;
80963;SDS011;70425;59.322;13.486;2023-07-13T04:31:12;9.67;;;2.60;;
80963;SDS011;70425;59.322;13.486;2023-07-13T04:34:01;14.10;;;2.90;;
80963;SDS011;70425;59.322;13.486;2023-07-13T04:36:49;13.00;;;2.50;;
80963;SDS011;70425;59.322;13.486;2023-07-13T04:39:38;14.17;;;2.47;;
80963;SDS011;70425;59.322;13.486;2023-07-13T04:42:27;9.07;;;2.80;;
80963;SDS011;70425;59.322;13.486;2023-07-13T04:45:15;11.00;;;2.80;;
80963;SDS011;70425;59.322;13.486;2023-07-13T04:50:45;9.23;;;2.90;;
80963;SDS011;70425;59.322;13.486;2023-07-13T04:53:35;8.77;;;2.67;;
80963;SDS011;70425;59.322;13.486;2023-07-13T04:56:24;8.60;;;2.50;;
80963;SDS011;70425;59.322;13.486;2023-07-13T04:59:13;10.37;;;2.50;;
80963;SDS011;70425;59.322;13.486;2023-07-13T05:02:01;7.40;;;2.30;;
80963;SDS011;70425;59.322;13.486;2023-07-13T05:07:35;9.00;;;2.40;;
80963;SDS011;70425;59.322;13.486;2023-07-13T05:10:24;7.23;;;2.37;;
80963;SDS011;70425;59.322;13.486;2023-07-13T05:13:12;6.17;;;2.10;;
80963;SDS011;70425;59.322;13.486;2023-07-13T05:18:41;11.13;;;2.37;;
80963;SDS011;70425;59.322;13.486;2023-07-13T05:21:29;10.87;;;2.50;;
80963;SDS011;70425;59.322;13.486;2023-07-13T05:24:17;9.40;;;2.43;;
80963;SDS011;70425;59.322;13.486;2023-07-13T05:27:06;11.67;;;2.43;;
80963;SDS011;70425;59.322;13.486;2023-07-13T05:29:56;11.03;;;2.10;;
80963;SDS011;70425;59.322;13.486;2023-07-13T05:32:55;13.27;;;2.40;;
80963;SDS011;70425;59.322;13.486;2023-07-13T05:40:06;10.07;;;2.00;;
80963;SDS011;70425;59.322;13.486;2023-07-13T05:43:14;5.13;;;1.77;;
80963;SDS011;70425;59.322;13.486;2023-07-13T05:46:08;6.63;;;1.97;;
80963;SDS011;70425;59.322;13.486;2023-07-13T05:48:58;7.93;;;1.90;;
80963;SDS011;70425;59.322;13.486;2023-07-13T05:51:53;4.83;;;1.90;;
80963;SDS011;70425;59.322;13.486;2023-07-13T05:54:43;6.70;;;1.80;;
80963;SDS011;70425;59.322;13.486;2023-07-13T06:12:45;8.33;;;2.10;;
80963;SDS011;70425;59.322;13.486;2023-07-13T06:25:49;6.37;;;2.00;;
80963;SDS011;70425;59.322;13.486;2023-07-13T06:42:31;6.80;;;2.00;;
80963;SDS011;70425;59.322;13.486;2023-07-13T06:55:52;8.03;;;2.03;;
80963;SDS011;70425;59.322;13.486;2023-07-13T07:04:14;5.93;;;1.83;;
80963;SDS011;70425;59.322;13.486;2023-07-13T07:13:25;9.10;;;1.93;;
80963;SDS011;70425;59.322;13.486;2023-07-13T07:16:35;8.17;;;1.80;;
80963;SDS011;70425;59.322;13.486;2023-07-13T07:19:54;4.77;;;1.80;;
80963;SDS011;70425;59.322;13.486;2023-07-13T07:26:34;7.17;;;1.80;;
80963;SDS011;70425;59.322;13.486;2023-07-13T07:42:46;5.07;;;2.10;;
80963;SDS011;70425;59.322;13.486;2023-07-13T07:57:16;8.47;;;2.73;;
80963;SDS011;70425;59.322;13.486;2023-07-13T08:17:32;6.17;;;1.90;;
80963;SDS011;70425;59.322;13.486;2023-07-13T08:20:36;6.73;;;2.00;;
80963;SDS011;70425;59.322;13.486;2023-07-13T08:31:08;5.43;;;2.10;;
80963;SDS011;70425;59.322;13.486;2023-07-13T08:34:00;5.83;;;1.73;;
80963;SDS011;70425;59.322;13.486;2023-07-13T08:36:54;5.03;;;1.90;;
80963;SDS011;70425;59.322;13.486;2023-07-13T08:54:45;8.37;;;1.50;;
80963;SDS011;70425;59.322;13.486;2023-07-13T09:10:28;7.00;;;2.00;;
80963;SDS011;70425;59.322;13.486;2023-07-13T09:16:34;6.73;;;1.80;;
80963;SDS011;70425;59.322;13.486;2023-07-13T09:19:26;7.63;;;1.87;;
80963;SDS011;70425;59.322;13.486;2023-07-13T09:22:20;3.60;;;1.43;;
80963;SDS011;70425;59.322;13.486;2023-07-13T09:25:18;6.53;;;1.67;;
80963;SDS011;70425;59.322;13.486;2023-07-13T09:28:11;8.10;;;2.30;;
80963;SDS011;70425;59.322;13.486;2023-07-13T09:31:03;6.17;;;2.10;;
80963;SDS011;70425;59.322;13.486;2023-07-13T09:33:50;3.43;;;1.60;;
80963;SDS011;70425;59.322;13.486;2023-07-13T09:36:44;4.93;;;1.83;;
80963;SDS011;70425;59.322;13.486;2023-07-13T09:39:35;5.13;;;1.60;;
80963;SDS011;70425;59.322;13.486;2023-07-13T09:42:27;3.50;;;1.20;;
80963;SDS011;70425;59.322;13.486;2023-07-13T09:45:20;3.37;;;1.30;;
80963;SDS011;70425;59.322;13.486;2023-07-13T09:48:13;4.77;;;1.60;;
80963;SDS011;70425;59.322;13.486;2023-07-13T09:51:13;7.67;;;1.97;;
80963;SDS011;70425;59.322;13.486;2023-07-13T09:54:03;4.53;;;1.63;;
80963;SDS011;70425;59.322;13.486;2023-07-13T09:56:55;4.93;;;1.87;;
80963;SDS011;70425;59.322;13.486;2023-07-13T09:59:45;3.13;;;1.60;;
80963;SDS011;70425;59.322;13.486;2023-07-13T10:14:15;5.13;;;1.67;;
80963;SDS011;70425;59.322;13.486;2023-07-13T10:19:47;4.07;;;1.50;;
80963;SDS011;70425;59.322;13.486;2023-07-13T10:22:52;4.67;;;1.63;;
80963;SDS011;70425;59.322;13.486;2023-07-13T10:25:44;6.43;;;1.40;;
80963;SDS011;70425;59.322;13.486;2023-07-13T10:28:38;4.00;;;1.47;;
80963;SDS011;70425;59.322;13.486;2023-07-13T10:31:31;4.63;;;1.33;;
80963;SDS011;70425;59.322;13.486;2023-07-13T10:34:22;4.63;;;1.23;;
80963;SDS011;70425;59.322;13.486;2023-07-13T10:37:16;3.87;;;1.40;;
80963;SDS011;70425;59.322;13.486;2023-07-13T10:40:13;4.90;;;1.40;;
80963;SDS011;70425;59.322;13.486;2023-07-13T10:43:06;1.77;;;1.10;;
80963;SDS011;70425;59.322;13.486;2023-07-13T10:45:51;7.63;;;1.30;;
80963;SDS011;70425;59.322;13.486;2023-07-13T10:48:44;3.60;;;1.27;;
80963;SDS011;70425;59.322;13.486;2023-07-13T10:51:37;4.20;;;1.50;;
80963;SDS011;70425;59.322;13.486;2023-07-13T10:57:20;7.37;;;1.33;;
80963;SDS011;70425;59.322;13.486;2023-07-13T11:00:14;2.10;;;1.20;;
80963;SDS011;70425;59.322;13.486;2023-07-13T11:03:10;3.17;;;1.00;;
80963;SDS011;70425;59.322;13.486;2023-07-13T11:06:07;2.77;;;1.30;;
80963;SDS011;70425;59.322;13.486;2023-07-13T11:12:00;1.43;;;1.10;;
80963;SDS011;70425;59.322;13.486;2023-07-13T11:17:53;3.60;;;1.40;;
80963;SDS011;70425;59.322;13.486;2023-07-13T11:20:44;3.73;;;1.37;;
80963;SDS011;70425;59.322;13.486;2023-07-13T11:23:36;4.47;;;1.47;;
80963;SDS011;70425;59.322;13.486;2023-07-13T11:30:31;5.53;;;1.60;;
80963;SDS011;70425;59.322;13.486;2023-07-13T11:36:14;4.13;;;1.50;;
80963;SDS011;70425;59.322;13.486;2023-07-13T11:39:11;2.40;;;1.33;;
80963;SDS011;70425;59.322;13.486;2023-07-13T11:42:10;4.93;;;1.50;;
80963;SDS011;70425;59.322;13.486;2023-07-13T11:45:28;2.27;;;1.40;;
80963;SDS011;70425;59.322;13.486;2023-07-13T11:48:22;3.77;;;1.37;;
80963;SDS011;70425;59.322;13.486;2023-07-13T11:51:15;2.37;;;1.30;;
80963;SDS011;70425;59.322;13.486;2023-07-13T11:56:51;3.93;;;1.20;;
80963;SDS011;70425;59.322;13.486;2023-07-13T11:59:46;4.10;;;1.40;;
80963;SDS011;70425;59.322;13.486;2023-07-13T12:02:37;4.83;;;1.70;;
80963;SDS011;70425;59.322;13.486;2023-07-13T12:05:27;2.77;;;1.40;;
80963;SDS011;70425;59.322;13.486;2023-07-13T12:08:20;3.07;;;1.30;;
80963;SDS011;70425;59.322;13.486;2023-07-13T12:11:14;3.03;;;1.30;;
80963;SDS011;70425;59.322;13.486;2023-07-13T12:14:03;2.80;;;1.50;;
80963;SDS011;70425;59.322;13.486;2023-07-13T12:18:54;4.47;;;1.40;;
80963;SDS011;70425;59.322;13.486;2023-07-13T12:21:46;5.70;;;1.50;;
80963;SDS011;70425;59.322;13.486;2023-07-13T12:28:22;3.70;;;1.70;;
80963;SDS011;70425;59.322;13.486;2023-07-13T12:46:01;2.50;;;1.10;;
80963;SDS011;70425;59.322;13.486;2023-07-13T12:49:17;3.63;;;1.23;;
80963;SDS011;70425;59.322;13.486;2023-07-13T12:56:02;2.27;;;1.00;;
80963;SDS011;70425;59.322;13.486;2023-07-13T12:58:57;3.80;;;1.20;;
80963;SDS011;70425;59.322;13.486;2023-07-13T13:01:46;3.47;;;1.10;;
80963;SDS011;70425;59.322;13.486;2023-07-13T13:04:44;3.23;;;1.40;;
80963;SDS011;70425;59.322;13.486;2023-07-13T13:07:35;6.93;;;1.20;;
80963;SDS011;70425;59.322;13.486;2023-07-13T13:17:24;2.90;;;1.07;;
80963;SDS011;70425;59.322;13.486;2023-07-13T13:20:19;1.50;;;1.17;;
80963;SDS011;70425;59.322;13.486;2023-07-13T13:23:17;2.50;;;1.07;;
80963;SDS011;70425;59.322;13.486;2023-07-13T13:26:10;3.17;;;1.00;;
80963;SDS011;70425;59.322;13.486;2023-07-13T13:29:03;3.13;;;1.30;;
80963;SDS011;70425;59.322;13.486;2023-07-13T13:32:01;4.93;;;1.00;;
80963;SDS011;70425;59.322;13.486;2023-07-13T13:34:52;3.10;;;1.30;;
80963;SDS011;70425;59.322;13.486;2023-07-13T13:37:42;4.13;;;1.10;;
80963;SDS011;70425;59.322;13.486;2023-07-13T13:40:53;4.43;;;1.23;;
80963;SDS011;70425;59.322;13.486;2023-07-13T13:43:46;3.90;;;1.20;;
80963;SDS011;70425;59.322;13.486;2023-07-13T13:46:36;5.40;;;1.33;;
80963;SDS011;70425;59.322;13.486;2023-07-13T13:49:29;4.33;;;1.23;;
80963;SDS011;70425;59.322;13.486;2023-07-13T13:52:40;3.70;;;1.27;;
80963;SDS011;70425;59.322;13.486;2023-07-13T13:55:29;3.47;;;1.00;;
80963;SDS011;70425;59.322;13.486;2023-07-13T13:58:47;1.87;;;0.90;;
80963;SDS011;70425;59.322;13.486;2023-07-13T14:01:37;4.73;;;1.17;;
80963;SDS011;70425;59.322;13.486;2023-07-13T14:04:29;0.80;;;0.80;;
80963;SDS011;70425;59.322;13.486;2023-07-13T14:07:18;7.17;;;1.17;;
80963;SDS011;70425;59.322;13.486;2023-07-13T14:10:10;6.67;;;1.10;;
80963;SDS011;70425;59.322;13.486;2023-07-13T14:13:03;3.13;;;1.10;;
80963;SDS011;70425;59.322;13.486;2023-07-13T14:15:59;4.40;;;0.93;;
80963;SDS011;70425;59.322;13.486;2023-07-13T14:18:49;2.67;;;1.10;;
80963;SDS011;70425;59.322;13.486;2023-07-13T14:27:33;1.40;;;0.90;;
80963;SDS011;70425;59.322;13.486;2023-07-13T14:30:28;1.47;;;0.80;;
80963;SDS011;70425;59.322;13.486;2023-07-13T14:33:18;2.17;;;0.80;;
80963;SDS011;70425;59.322;13.486;2023-07-13T14:49:37;1.07;;;0.80;;
80963;SDS011;70425;59.322;13.486;2023-07-13T14:55:43;3.67;;;0.80;;
80963;SDS011;70425;59.322;13.486;2023-07-13T14:58:33;3.00;;;0.90;;
80963;SDS011;70425;59.322;13.486;2023-07-13T15:01:25;1.23;;;0.77;;
80963;SDS011;70425;59.322;13.486;2023-07-13T15:04:18;1.13;;;1.00;;
80963;SDS011;70425;59.322;13.486;2023-07-13T15:07:08;1.67;;;0.87;;
80963;SDS011;70425;59.322;13.486;2023-07-13T15:10:04;2.03;;;1.07;;
80963;SDS011;70425;59.322;13.486;2023-07-13T15:20:16;3.63;;;1.10;;
80963;SDS011;70425;59.322;13.486;2023-07-13T15:23:09;2.30;;;1.00;;
80963;SDS011;70425;59.322;13.486;2023-07-13T15:26:00;2.20;;;1.00;;
80963;SDS011;70425;59.322;13.486;2023-07-13T15:28:49;2.13;;;1.17;;
80963;SDS011;70425;59.322;13.486;2023-07-13T15:31:38;1.97;;;0.90;;
80963;SDS011;70425;59.322;13.486;2023-07-13T15:50:11;3.13;;;1.03;;
80963;SDS011;70425;59.322;13.486;2023-07-13T15:53:09;3.70;;;1.03;;
80963;SDS011;70425;59.322;13.486;2023-07-13T15:56:03;1.67;;;0.80;;
80963;SDS011;70425;59.322;13.486;2023-07-13T15:59:01;2.47;;;0.90;;
80963;SDS011;70425;59.322;13.486;2023-07-13T16:12:30;3.23;;;0.90;;
80963;SDS011;70425;59.322;13.486;2023-07-13T16:15:18;1.60;;;0.87;;
80963;SDS011;70425;59.322;13.486;2023-07-13T16:18:08;2.27;;;1.00;;
80963;SDS011;70425;59.322;13.486;2023-07-13T16:20:58;3.97;;;0.97;;
80963;SDS011;70425;59.322;13.486;2023-07-13T16:23:46;2.00;;;0.90;;
80963;SDS011;70425;59.322;13.486;2023-07-13T16:26:37;0.83;;;0.70;;
80963;SDS011;70425;59.322;13.486;2023-07-13T16:32:13;1.73;;;1.10;;
80963;SDS011;70425;59.322;13.486;2023-07-13T16:35:02;3.47;;;0.90;;
80963;SDS011;70425;59.322;13.486;2023-07-13T16:37:51;1.70;;;0.90;;
80963;SDS011;70425;59.322;13.486;2023-07-13T16:40:42;1.70;;;1.00;;
80963;SDS011;70425;59.322;13.486;2023-07-13T16:43:32;2.63;;;1.00;;
80963;SDS011;70425;59.322;13.486;2023-07-13T16:46:22;2.53;;;1.20;;
80963;SDS011;70425;59.322;13.486;2023-07-13T16:49:17;3.07;;;1.03;;
80963;SDS011;70425;59.322;13.486;2023-07-13T16:52:12;2.40;;;0.83;;
80963;SDS011;70425;59.322;13.486;2023-07-13T16:55:04;2.30;;;0.90;;
80963;SDS011;70425;59.322;13.486;2023-07-13T17:00:48;2.23;;;1.00;;
80963;SDS011;70425;59.322;13.486;2023-07-13T17:03:38;5.10;;;1.10;;
80963;SDS011;70425;59.322;13.486;2023-07-13T17:06:27;2.23;;;1.00;;
80963;SDS011;70425;59.322;13.486;2023-07-13T17:09:17;3.90;;;1.07;;
80963;SDS011;70425;59.322;13.486;2023-07-13T17:12:08;1.40;;;1.10;;
80963;SDS011;70425;59.322;13.486;2023-07-13T17:14:56;2.17;;;1.00;;
80963;SDS011;70425;59.322;13.486;2023-07-13T17:17:48;4.47;;;1.20;;
80963;SDS011;70425;59.322;13.486;2023-07-13T17:20:38;3.07;;;1.13;;
80963;SDS011;70425;59.322;13.486;2023-07-13T17:23:31;2.47;;;1.37;;
80963;SDS011;70425;59.322;13.486;2023-07-13T17:26:20;2.77;;;1.20;;
80963;SDS011;70425;59.322;13.486;2023-07-13T17:29:09;7.37;;;1.60;;
80963;SDS011;70425;59.322;13.486;2023-07-13T17:31:58;5.90;;;1.30;;
80963;SDS011;70425;59.322;13.486;2023-07-13T17:35:21;2.07;;;1.30;;
80963;SDS011;70425;59.322;13.486;2023-07-13T17:38:12;2.47;;;1.23;;
80963;SDS011;70425;59.322;13.486;2023-07-13T17:41:00;3.50;;;1.40;;
80963;SDS011;70425;59.322;13.486;2023-07-13T17:43:50;2.23;;;1.60;;
80963;SDS011;70425;59.322;13.486;2023-07-13T17:46:39;3.97;;;1.43;;
80963;SDS011;70425;59.322;13.486;2023-07-13T17:49:30;2.07;;;1.27;;
80963;SDS011;70425;59.322;13.486;2023-07-13T17:52:13;3.37;;;1.30;;
80963;SDS011;70425;59.322;13.486;2023-07-13T17:57:43;3.53;;;1.77;;
80963;SDS011;70425;59.322;13.486;2023-07-13T18:00:35;1.13;;;1.00;;
80963;SDS011;70425;59.322;13.486;2023-07-13T18:03:27;1.60;;;1.20;;
80963;SDS011;70425;59.322;13.486;2023-07-13T18:06:20;3.57;;;1.40;;
80963;SDS011;70425;59.322;13.486;2023-07-13T18:09:13;4.30;;;1.37;;
80963;SDS011;70425;59.322;13.486;2023-07-13T18:12:07;3.07;;;1.47;;
80963;SDS011;70425;59.322;13.486;2023-07-13T18:14:57;1.53;;;1.27;;
80963;SDS011;70425;59.322;13.486;2023-07-13T18:17:46;6.67;;;1.60;;
80963;SDS011;70425;59.322;13.486;2023-07-13T18:20:37;3.10;;;1.50;;
80963;SDS011;70425;59.322;13.486;2023-07-13T18:23:28;4.77;;;1.70;;
80963;SDS011;70425;59.322;13.486;2023-07-13T18:26:18;4.77;;;1.63;;
80963;SDS011;70425;59.322;13.486;2023-07-13T18:32:01;5.53;;;1.70;;
80963;SDS011;70425;59.322;13.486;2023-07-13T18:34:51;3.13;;;1.47;;
80963;SDS011;70425;59.322;13.486;2023-07-13T18:37:40;5.13;;;1.53;;
80963;SDS011;70425;59.322;13.486;2023-07-13T18:40:30;5.37;;;1.83;;
80963;SDS011;70425;59.322;13.486;2023-07-13T18:56:45;2.77;;;1.47;;
80963;SDS011;70425;59.322;13.486;2023-07-13T18:59:34;4.20;;;1.33;;
80963;SDS011;70425;59.322;13.486;2023-07-13T19:02:25;7.77;;;1.50;;
80963;SDS011;70425;59.322;13.486;2023-07-13T19:05:15;4.00;;;1.70;;
80963;SDS011;70425;59.322;13.486;2023-07-13T19:08:08;3.83;;;1.43;;
80963;SDS011;70425;59.322;13.486;2023-07-13T19:11:00;7.13;;;1.80;;
80963;SDS011;70425;59.322;13.486;2023-07-13T19:18:39;4.40;;;1.47;;
80963;SDS011;70425;59.322;13.486;2023-07-13T19:21:35;4.43;;;1.57;;
80963;SDS011;70425;59.322;13.486;2023-07-13T19:24:26;5.10;;;1.70;;
80963;SDS011;70425;59.322;13.486;2023-07-13T19:27:16;5.20;;;1.50;;
80963;SDS011;70425;59.322;13.486;2023-07-13T19:30:08;5.63;;;1.43;;
80963;SDS011;70425;59.322;13.486;2023-07-13T19:32:59;3.60;;;1.70;;
80963;SDS011;70425;59.322;13.486;2023-07-13T19:35:47;6.17;;;1.90;;
80963;SDS011;70425;59.322;13.486;2023-07-13T19:38:37;6.97;;;1.70;;
80963;SDS011;70425;59.322;13.486;2023-07-13T19:41:27;6.73;;;1.70;;
80963;SDS011;70425;59.322;13.486;2023-07-13T19:44:17;5.47;;;1.70;;
80963;SDS011;70425;59.322;13.486;2023-07-13T19:47:10;5.43;;;1.90;;
80963;SDS011;70425;59.322;13.486;2023-07-13T19:49:59;3.93;;;1.73;;
80963;SDS011;70425;59.322;13.486;2023-07-13T19:55:28;7.60;;;2.07;;
80963;SDS011;70425;59.322;13.486;2023-07-13T19:58:17;10.93;;;2.13;;
80963;SDS011;70425;59.322;13.486;2023-07-13T20:01:06;9.40;;;2.63;;
80963;SDS011;70425;59.322;13.486;2023-07-13T20:03:54;10.70;;;2.47;;
80963;SDS011;70425;59.322;13.486;2023-07-13T20:06:43;8.30;;;2.07;;
80963;SDS011;70425;59.322;13.486;2023-07-13T20:09:26;13.33;;;2.50;;
80963;SDS011;70425;59.322;13.486;2023-07-13T20:12:17;12.83;;;2.20;;
80963;SDS011;70425;59.322;13.486;2023-07-13T20:15:07;8.93;;;2.10;;
80963;SDS011;70425;59.322;13.486;2023-07-13T20:17:57;7.03;;;2.10;;
80963;SDS011;70425;59.322;13.486;2023-07-13T20:23:41;16.07;;;2.70;;
80963;SDS011;70425;59.322;13.486;2023-07-13T20:27:11;11.83;;;2.63;;
80963;SDS011;70425;59.322;13.486;2023-07-13T20:29:56;7.47;;;2.37;;
80963;SDS011;70425;59.322;13.486;2023-07-13T20:32:45;8.73;;;2.80;;
80963;SDS011;70425;59.322;13.486;2023-07-13T20:35:35;8.70;;;2.60;;
80963;SDS011;70425;59.322;13.486;2023-07-13T20:38:24;10.13;;;2.53;;
80963;SDS011;70425;59.322;13.486;2023-07-13T20:41:13;11.70;;;2.80;;
80963;SDS011;70425;59.322;13.486;2023-07-13T20:44:03;8.70;;;2.53;;
80963;SDS011;70425;59.322;13.486;2023-07-13T20:46:53;8.67;;;2.50;;
80963;SDS011;70425;59.322;13.486;2023-07-13T20:49:42;15.67;;;2.70;;
80963;SDS011;70425;59.322;13.486;2023-07-13T20:55:16;14.10;;;3.13;;
80963;SDS011;70425;59.322;13.486;2023-07-13T21:02:29;12.17;;;2.80;;
80963;SDS011;70425;59.322;13.486;2023-07-13T21:05:21;14.17;;;3.10;;
80963;SDS011;70425;59.322;13.486;2023-07-13T21:08:12;16.10;;;3.20;;
80963;SDS011;70425;59.322;13.486;2023-07-13T21:11:02;10.30;;;2.80;;
80963;SDS011;70425;59.322;13.486;2023-07-13T21:13:53;10.07;;;2.57;;
80963;SDS011;70425;59.322;13.486;2023-07-13T21:16:36;13.27;;;3.00;;
80963;SDS011;70425;59.322;13.486;2023-07-13T21:19:25;10.70;;;2.67;;
80963;SDS011;70425;59.322;13.486;2023-07-13T21:22:41;15.47;;;3.00;;
80963;SDS011;70425;59.322;13.486;2023-07-13T21:25:30;9.77;;;2.60;;
80963;SDS011;70425;59.322;13.486;2023-07-13T21:28:19;13.43;;;2.70;;
80963;SDS011;70425;59.322;13.486;2023-07-13T21:31:13;13.60;;;2.70;;
80963;SDS011;70425;59.322;13.486;2023-07-13T21:34:07;13.53;;;3.13;;
80963;SDS011;70425;59.322;13.486;2023-07-13T21:36:57;12.13;;;3.23;;
80963;SDS011;70425;59.322;13.486;2023-07-13T21:39:45;14.67;;;3.20;;
80963;SDS011;70425;59.322;13.486;2023-07-13T21:42:37;13.63;;;3.40;;
80963;SDS011;70425;59.322;13.486;2023-07-13T21:45:26;14.97;;;3.10;;
80963;SDS011;70425;59.322;13.486;2023-07-13T21:48:15;15.00;;;3.33;;
80963;SDS011;70425;59.322;13.486;2023-07-13T21:51:07;13.07;;;3.10;;
80963;SDS011;70425;59.322;13.486;2023-07-13T21:53:54;13.17;;;3.13;;
80963;SDS011;70425;59.322;13.486;2023-07-13T21:56:43;8.53;;;2.73;;
80963;SDS011;70425;59.322;13.486;2023-07-13T21:59:33;11.57;;;3.37;;
80963;SDS011;70425;59.322;13.486;2023-07-13T22:15:48;12.20;;;3.37;;
80963;SDS011;70425;59.322;13.486;2023-07-13T22:21:19;13.50;;;3.23;;
80963;SDS011;70425;59.322;13.486;2023-07-13T22:24:11;19.47;;;4.30;;
80963;SDS011;70425;59.322;13.486;2023-07-13T22:27:02;14.20;;;3.40;;
80963;SDS011;70425;59.322;13.486;2023-07-13T22:29:51;12.50;;;3.17;;
80963;SDS011;70425;59.322;13.486;2023-07-13T22:32:39;16.07;;;3.40;;
80963;SDS011;70425;59.322;13.486;2023-07-13T22:35:28;15.03;;;3.83;;
80963;SDS011;70425;59.322;13.486;2023-07-13T22:38:18;17.60;;;3.70;;
80963;SDS011;70425;59.322;13.486;2023-07-13T22:41:09;21.23;;;3.60;;
80963;SDS011;70425;59.322;13.486;2023-07-13T22:55:13;21.90;;;4.40;;
80963;SDS011;70425;59.322;13.486;2023-07-13T23:00:55;21.70;;;4.23;;
80963;SDS011;70425;59.322;13.486;2023-07-13T23:03:46;14.60;;;3.90;;
80963;SDS011;70425;59.322;13.486;2023-07-13T23:06:35;16.37;;;4.17;;
80963;SDS011;70425;59.322;13.486;2023-07-13T23:09:24;15.27;;;3.47;;